sensor_id;sensor_type;location;lat;lon;timestamp;P1;durP1;ratioP1;P2;durP2;ratioP2
11935;SDS011;6027;48.576;9.180;2023-07-31T00:02:18;7.82;;;7.22;;
11935;SDS011;6027;48.576;9.180;2023-07-31T00:04:44;8.65;;;8.05;;
11935;SDS011;6027;48.576;9.180;2023-07-31T00:07:09;8.73;;;8.13;;
11935;SDS011;6027;48.576;9.180;2023-07-31T00:09:34;8.68;;;7.97;;
11935;SDS011;6027;48.576;9.180;2023-07-31T00:12:00;9.15;;;8.60;;
11935;SDS011;6027;48.576;9.180;2023-07-31T00:14:25;8.50;;;7.95;;
11935;SDS011;6027;48.576;9.180;2023-07-31T00:16:51;9.23;;;8.63;;
11935;SDS011;6027;48.576;9.180;2023-07-31T00:19:16;8.50;;;7.90;;
11935;SDS011;6027;48.576;9.180;2023-07-31T00:21:41;7.68;;;6.97;;
11935;SDS011;6027;48.576;9.180;2023-07-31T00:24:09;9.90;;;9.15;;
11935;SDS011;6027;48.576;9.180;2023-07-31T00:26:34;8.95;;;8.00;;
11935;SDS011;6027;48.576;9.180;2023-07-31T00:29:00;8.90;;;8.30;;
11935;SDS011;6027;48.576;9.180;2023-07-31T00:31:26;9.10;;;8.38;;
11935;SDS011;6027;48.576;9.180;2023-07-31T00:33:52;9.85;;;9.05;;
11935;SDS011;6027;48.576;9.180;2023-07-31T00:36:17;9.55;;;8.85;;
11935;SDS011;6027;48.576;9.180;2023-07-31T00:38:43;9.30;;;8.48;;
11935;SDS011;6027;48.576;9.180;2023-07-31T00:41:09;8.57;;;7.93;;
11935;SDS011;6027;48.576;9.180;2023-07-31T00:43:34;9.35;;;8.60;;
11935;SDS011;6027;48.576;9.180;2023-07-31T00:46:00;9.27;;;8.52;;
11935;SDS011;6027;48.576;9.180;2023-07-31T00:48:25;7.97;;;7.07;;
11935;SDS011;6027;48.576;9.180;2023-07-31T00:50:51;10.13;;;9.27;;
11935;SDS011;6027;48.576;9.180;2023-07-31T00:53:17;9.52;;;8.63;;
11935;SDS011;6027;48.576;9.180;2023-07-31T00:55:42;10.57;;;9.70;;
11935;SDS011;6027;48.576;9.180;2023-07-31T00:58:08;8.52;;;7.82;;
11935;SDS011;6027;48.576;9.180;2023-07-31T01:00:33;7.57;;;6.97;;
11935;SDS011;6027;48.576;9.180;2023-07-31T01:02:59;8.05;;;7.55;;
11935;SDS011;6027;48.576;9.180;2023-07-31T01:05:29;9.02;;;8.27;;
11935;SDS011;6027;48.576;9.180;2023-07-31T01:10:55;7.80;;;7.25;;
11935;SDS011;6027;48.576;9.180;2023-07-31T01:13:25;8.05;;;7.38;;
11935;SDS011;6027;48.576;9.180;2023-07-31T01:15:51;8.30;;;7.68;;
11935;SDS011;6027;48.576;9.180;2023-07-31T01:18:17;8.55;;;7.68;;
11935;SDS011;6027;48.576;9.180;2023-07-31T01:20:42;9.55;;;8.85;;
11935;SDS011;6027;48.576;9.180;2023-07-31T01:28:33;8.95;;;8.35;;
11935;SDS011;6027;48.576;9.180;2023-07-31T01:31:06;8.23;;;7.60;;
11935;SDS011;6027;48.576;9.180;2023-07-31T01:33:35;8.80;;;8.10;;
11935;SDS011;6027;48.576;9.180;2023-07-31T01:36:01;8.90;;;8.02;;
11935;SDS011;6027;48.576;9.180;2023-07-31T01:38:27;9.00;;;7.72;;
11935;SDS011;6027;48.576;9.180;2023-07-31T01:40:53;8.27;;;7.68;;
11935;SDS011;6027;48.576;9.180;2023-07-31T01:43:19;8.48;;;7.72;;
11935;SDS011;6027;48.576;9.180;2023-07-31T01:45:45;8.20;;;7.50;;
11935;SDS011;6027;48.576;9.180;2023-07-31T01:48:10;7.53;;;6.93;;
11935;SDS011;6027;48.576;9.180;2023-07-31T01:50:36;8.55;;;7.95;;
11935;SDS011;6027;48.576;9.180;2023-07-31T01:53:01;8.23;;;7.45;;
11935;SDS011;6027;48.576;9.180;2023-07-31T01:55:26;8.20;;;7.53;;
11935;SDS011;6027;48.576;9.180;2023-07-31T01:57:52;9.07;;;8.48;;
11935;SDS011;6027;48.576;9.180;2023-07-31T02:00:18;7.60;;;7.07;;
11935;SDS011;6027;48.576;9.180;2023-07-31T02:02:43;9.55;;;8.85;;
11935;SDS011;6027;48.576;9.180;2023-07-31T02:05:09;7.18;;;6.68;;
11935;SDS011;6027;48.576;9.180;2023-07-31T02:07:34;7.60;;;7.10;;
11935;SDS011;6027;48.576;9.180;2023-07-31T02:10:00;8.50;;;7.63;;
11935;SDS011;6027;48.576;9.180;2023-07-31T02:12:25;8.82;;;8.07;;
11935;SDS011;6027;48.576;9.180;2023-07-31T02:14:51;8.57;;;7.85;;
11935;SDS011;6027;48.576;9.180;2023-07-31T02:17:16;8.27;;;7.68;;
11935;SDS011;6027;48.576;9.180;2023-07-31T02:19:42;10.18;;;9.18;;
11935;SDS011;6027;48.576;9.180;2023-07-31T02:22:07;8.65;;;7.95;;
11935;SDS011;6027;48.576;9.180;2023-07-31T02:24:33;8.63;;;7.68;;
11935;SDS011;6027;48.576;9.180;2023-07-31T02:26:58;8.73;;;8.20;;
11935;SDS011;6027;48.576;9.180;2023-07-31T02:29:23;7.68;;;7.15;;
11935;SDS011;6027;48.576;9.180;2023-07-31T02:31:49;8.02;;;7.43;;
11935;SDS011;6027;48.576;9.180;2023-07-31T02:34:14;8.43;;;7.78;;
11935;SDS011;6027;48.576;9.180;2023-07-31T02:36:40;9.18;;;8.57;;
11935;SDS011;6027;48.576;9.180;2023-07-31T02:39:05;8.20;;;7.60;;
11935;SDS011;6027;48.576;9.180;2023-07-31T02:41:30;9.50;;;8.70;;
11935;SDS011;6027;48.576;9.180;2023-07-31T02:43:56;8.90;;;7.90;;
11935;SDS011;6027;48.576;9.180;2023-07-31T02:46:21;8.82;;;8.23;;
11935;SDS011;6027;48.576;9.180;2023-07-31T02:48:49;9.70;;;8.95;;
11935;SDS011;6027;48.576;9.180;2023-07-31T02:51:15;8.20;;;7.55;;
11935;SDS011;6027;48.576;9.180;2023-07-31T02:53:40;8.38;;;7.78;;
11935;SDS011;6027;48.576;9.180;2023-07-31T02:56:06;8.95;;;8.25;;
11935;SDS011;6027;48.576;9.180;2023-07-31T02:58:31;8.40;;;7.78;;
11935;SDS011;6027;48.576;9.180;2023-07-31T03:00:58;8.13;;;7.53;;
11935;SDS011;6027;48.576;9.180;2023-07-31T03:03:23;8.95;;;8.35;;
11935;SDS011;6027;48.576;9.180;2023-07-31T03:05:49;8.30;;;7.70;;
11935;SDS011;6027;48.576;9.180;2023-07-31T03:08:14;7.50;;;6.90;;
11935;SDS011;6027;48.576;9.180;2023-07-31T03:10:40;7.78;;;7.25;;
11935;SDS011;6027;48.576;9.180;2023-07-31T03:13:06;7.78;;;7.15;;
11935;SDS011;6027;48.576;9.180;2023-07-31T03:15:32;7.13;;;6.72;;
11935;SDS011;6027;48.576;9.180;2023-07-31T03:17:57;8.02;;;7.20;;
11935;SDS011;6027;48.576;9.180;2023-07-31T03:20:22;8.65;;;8.02;;
11935;SDS011;6027;48.576;9.180;2023-07-31T03:22:48;8.43;;;7.93;;
11935;SDS011;6027;48.576;9.180;2023-07-31T03:25:13;8.98;;;8.38;;
11935;SDS011;6027;48.576;9.180;2023-07-31T03:27:39;9.88;;;8.43;;
11935;SDS011;6027;48.576;9.180;2023-07-31T03:30:05;9.73;;;8.88;;
11935;SDS011;6027;48.576;9.180;2023-07-31T03:32:31;7.68;;;7.18;;
11935;SDS011;6027;48.576;9.180;2023-07-31T03:34:57;7.10;;;6.60;;
11935;SDS011;6027;48.576;9.180;2023-07-31T03:37:22;7.65;;;7.15;;
11935;SDS011;6027;48.576;9.180;2023-07-31T03:39:48;9.60;;;8.90;;
11935;SDS011;6027;48.576;9.180;2023-07-31T03:42:13;8.35;;;7.55;;
11935;SDS011;6027;48.576;9.180;2023-07-31T03:44:38;8.40;;;7.80;;
11935;SDS011;6027;48.576;9.180;2023-07-31T03:47:04;9.02;;;8.18;;
11935;SDS011;6027;48.576;9.180;2023-07-31T03:49:30;7.78;;;7.28;;
11935;SDS011;6027;48.576;9.180;2023-07-31T03:51:55;11.63;;;8.10;;
11935;SDS011;6027;48.576;9.180;2023-07-31T03:54:21;7.82;;;7.28;;
11935;SDS011;6027;48.576;9.180;2023-07-31T03:56:46;8.55;;;7.90;;
11935;SDS011;6027;48.576;9.180;2023-07-31T03:59:12;8.07;;;7.53;;
11935;SDS011;6027;48.576;9.180;2023-07-31T04:01:37;9.45;;;8.82;;
11935;SDS011;6027;48.576;9.180;2023-07-31T04:04:02;9.05;;;8.35;;
11935;SDS011;6027;48.576;9.180;2023-07-31T04:06:28;7.80;;;7.20;;
11935;SDS011;6027;48.576;9.180;2023-07-31T04:08:53;8.15;;;7.65;;
11935;SDS011;6027;48.576;9.180;2023-07-31T04:11:19;9.35;;;8.60;;
11935;SDS011;6027;48.576;9.180;2023-07-31T04:13:44;9.68;;;8.98;;
11935;SDS011;6027;48.576;9.180;2023-07-31T04:16:10;7.63;;;7.18;;
11935;SDS011;6027;48.576;9.180;2023-07-31T04:18:35;8.68;;;8.02;;
11935;SDS011;6027;48.576;9.180;2023-07-31T04:21:00;8.75;;;8.10;;
11935;SDS011;6027;48.576;9.180;2023-07-31T04:23:29;9.45;;;8.65;;
11935;SDS011;6027;48.576;9.180;2023-07-31T04:25:55;7.78;;;7.18;;
11935;SDS011;6027;48.576;9.180;2023-07-31T04:28:20;7.35;;;6.85;;
11935;SDS011;6027;48.576;9.180;2023-07-31T04:30:46;8.60;;;7.85;;
11935;SDS011;6027;48.576;9.180;2023-07-31T04:33:12;8.75;;;7.85;;
11935;SDS011;6027;48.576;9.180;2023-07-31T04:35:37;7.25;;;6.75;;
11935;SDS011;6027;48.576;9.180;2023-07-31T04:38:02;8.90;;;8.15;;
11935;SDS011;6027;48.576;9.180;2023-07-31T04:40:28;8.77;;;7.97;;
11935;SDS011;6027;48.576;9.180;2023-07-31T04:42:53;9.57;;;8.38;;
11935;SDS011;6027;48.576;9.180;2023-07-31T04:45:19;7.47;;;6.78;;
11935;SDS011;6027;48.576;9.180;2023-07-31T04:47:44;7.45;;;6.80;;
11935;SDS011;6027;48.576;9.180;2023-07-31T04:50:09;8.75;;;8.05;;
11935;SDS011;6027;48.576;9.180;2023-07-31T04:52:35;10.52;;;9.73;;
11935;SDS011;6027;48.576;9.180;2023-07-31T04:55:00;9.10;;;8.38;;
11935;SDS011;6027;48.576;9.180;2023-07-31T04:57:26;9.68;;;8.98;;
11935;SDS011;6027;48.576;9.180;2023-07-31T04:59:51;9.32;;;8.63;;
11935;SDS011;6027;48.576;9.180;2023-07-31T05:02:17;11.07;;;10.15;;
11935;SDS011;6027;48.576;9.180;2023-07-31T05:04:45;8.52;;;7.72;;
11935;SDS011;6027;48.576;9.180;2023-07-31T05:07:11;8.77;;;8.18;;
11935;SDS011;6027;48.576;9.180;2023-07-31T05:09:37;9.75;;;8.68;;
11935;SDS011;6027;48.576;9.180;2023-07-31T05:12:04;8.50;;;7.80;;
11935;SDS011;6027;48.576;9.180;2023-07-31T05:14:30;10.30;;;9.40;;
11935;SDS011;6027;48.576;9.180;2023-07-31T05:16:56;10.30;;;9.60;;
11935;SDS011;6027;48.576;9.180;2023-07-31T05:19:21;11.48;;;10.52;;
11935;SDS011;6027;48.576;9.180;2023-07-31T05:21:46;10.68;;;9.68;;
11935;SDS011;6027;48.576;9.180;2023-07-31T05:24:12;9.52;;;8.80;;
11935;SDS011;6027;48.576;9.180;2023-07-31T05:26:37;10.23;;;9.18;;
11935;SDS011;6027;48.576;9.180;2023-07-31T05:29:03;10.57;;;9.77;;
11935;SDS011;6027;48.576;9.180;2023-07-31T05:31:29;9.70;;;9.00;;
11935;SDS011;6027;48.576;9.180;2023-07-31T05:33:54;11.65;;;10.73;;
11935;SDS011;6027;48.576;9.180;2023-07-31T05:36:20;9.65;;;8.95;;
11935;SDS011;6027;48.576;9.180;2023-07-31T05:38:45;11.18;;;10.30;;
11935;SDS011;6027;48.576;9.180;2023-07-31T05:41:11;11.43;;;10.52;;
11935;SDS011;6027;48.576;9.180;2023-07-31T05:43:37;11.00;;;10.10;;
11935;SDS011;6027;48.576;9.180;2023-07-31T05:46:02;11.25;;;10.25;;
11935;SDS011;6027;48.576;9.180;2023-07-31T05:48:28;10.73;;;10.02;;
11935;SDS011;6027;48.576;9.180;2023-07-31T05:50:53;10.32;;;9.63;;
11935;SDS011;6027;48.576;9.180;2023-07-31T05:53:19;11.15;;;10.32;;
11935;SDS011;6027;48.576;9.180;2023-07-31T05:55:44;10.80;;;10.02;;
11935;SDS011;6027;48.576;9.180;2023-07-31T05:58:10;11.02;;;10.18;;
11935;SDS011;6027;48.576;9.180;2023-07-31T06:00:35;9.18;;;8.57;;
11935;SDS011;6027;48.576;9.180;2023-07-31T06:03:01;9.90;;;9.10;;
11935;SDS011;6027;48.576;9.180;2023-07-31T06:05:26;10.73;;;9.88;;
11935;SDS011;6027;48.576;9.180;2023-07-31T06:07:54;10.20;;;9.30;;
11935;SDS011;6027;48.576;9.180;2023-07-31T06:10:20;8.77;;;8.10;;
11935;SDS011;6027;48.576;9.180;2023-07-31T06:12:45;11.20;;;10.40;;
11935;SDS011;6027;48.576;9.180;2023-07-31T06:15:11;10.88;;;9.98;;
11935;SDS011;6027;48.576;9.180;2023-07-31T06:17:36;10.77;;;10.07;;
11935;SDS011;6027;48.576;9.180;2023-07-31T06:20:02;11.18;;;10.35;;
11935;SDS011;6027;48.576;9.180;2023-07-31T06:22:30;11.27;;;10.27;;
11935;SDS011;6027;48.576;9.180;2023-07-31T06:24:56;9.45;;;8.85;;
11935;SDS011;6027;48.576;9.180;2023-07-31T06:27:21;10.27;;;9.52;;
11935;SDS011;6027;48.576;9.180;2023-07-31T06:29:46;10.07;;;9.38;;
11935;SDS011;6027;48.576;9.180;2023-07-31T06:32:12;9.60;;;8.90;;
11935;SDS011;6027;48.576;9.180;2023-07-31T06:34:38;9.60;;;9.00;;
11935;SDS011;6027;48.576;9.180;2023-07-31T06:37:05;11.73;;;10.77;;
11935;SDS011;6027;48.576;9.180;2023-07-31T06:39:30;10.82;;;9.93;;
11935;SDS011;6027;48.576;9.180;2023-07-31T06:41:56;12.88;;;11.63;;
11935;SDS011;6027;48.576;9.180;2023-07-31T06:44:21;11.45;;;10.57;;
11935;SDS011;6027;48.576;9.180;2023-07-31T06:46:47;10.35;;;9.43;;
11935;SDS011;6027;48.576;9.180;2023-07-31T06:49:12;11.38;;;10.63;;
11935;SDS011;6027;48.576;9.180;2023-07-31T06:51:40;10.75;;;9.73;;
11935;SDS011;6027;48.576;9.180;2023-07-31T06:54:05;11.15;;;10.35;;
11935;SDS011;6027;48.576;9.180;2023-07-31T06:56:32;10.65;;;9.65;;
11935;SDS011;6027;48.576;9.180;2023-07-31T06:58:57;10.18;;;9.38;;
11935;SDS011;6027;48.576;9.180;2023-07-31T07:01:22;11.20;;;10.30;;
11935;SDS011;6027;48.576;9.180;2023-07-31T07:03:48;9.15;;;8.35;;
11935;SDS011;6027;48.576;9.180;2023-07-31T07:06:16;9.93;;;9.13;;
11935;SDS011;6027;48.576;9.180;2023-07-31T07:08:42;11.63;;;10.52;;
11935;SDS011;6027;48.576;9.180;2023-07-31T07:11:07;10.10;;;9.23;;
11935;SDS011;6027;48.576;9.180;2023-07-31T07:13:33;8.80;;;8.10;;
11935;SDS011;6027;48.576;9.180;2023-07-31T07:15:59;9.75;;;9.00;;
11935;SDS011;6027;48.576;9.180;2023-07-31T07:18:24;10.50;;;9.65;;
11935;SDS011;6027;48.576;9.180;2023-07-31T07:20:50;9.85;;;9.00;;
11935;SDS011;6027;48.576;9.180;2023-07-31T07:23:17;9.15;;;8.25;;
11935;SDS011;6027;48.576;9.180;2023-07-31T07:25:43;10.98;;;9.88;;
11935;SDS011;6027;48.576;9.180;2023-07-31T07:28:09;9.00;;;8.40;;
11935;SDS011;6027;48.576;9.180;2023-07-31T07:30:35;8.63;;;8.02;;
11935;SDS011;6027;48.576;9.180;2023-07-31T07:33:00;7.03;;;6.43;;
11935;SDS011;6027;48.576;9.180;2023-07-31T07:35:26;8.05;;;7.40;;
11935;SDS011;6027;48.576;9.180;2023-07-31T07:37:51;8.70;;;7.90;;
11935;SDS011;6027;48.576;9.180;2023-07-31T07:40:17;6.43;;;5.88;;
11935;SDS011;6027;48.576;9.180;2023-07-31T07:42:42;7.72;;;7.10;;
11935;SDS011;6027;48.576;9.180;2023-07-31T07:45:08;8.80;;;8.13;;
11935;SDS011;6027;48.576;9.180;2023-07-31T07:47:33;6.80;;;6.20;;
11935;SDS011;6027;48.576;9.180;2023-07-31T07:49:59;8.40;;;7.68;;
11935;SDS011;6027;48.576;9.180;2023-07-31T07:52:24;9.15;;;8.45;;
11935;SDS011;6027;48.576;9.180;2023-07-31T07:54:50;6.72;;;6.15;;
11935;SDS011;6027;48.576;9.180;2023-07-31T07:57:15;8.52;;;7.82;;
11935;SDS011;6027;48.576;9.180;2023-07-31T07:59:41;6.88;;;6.07;;
11935;SDS011;6027;48.576;9.180;2023-07-31T08:02:07;7.57;;;6.97;;
11935;SDS011;6027;48.576;9.180;2023-07-31T08:04:32;5.95;;;5.35;;
11935;SDS011;6027;48.576;9.180;2023-07-31T08:06:58;6.53;;;6.00;;
11935;SDS011;6027;48.576;9.180;2023-07-31T08:09:23;7.65;;;6.97;;
11935;SDS011;6027;48.576;9.180;2023-07-31T08:11:49;8.15;;;7.30;;
11935;SDS011;6027;48.576;9.180;2023-07-31T08:14:14;5.88;;;5.38;;
11935;SDS011;6027;48.576;9.180;2023-07-31T08:16:39;7.82;;;7.10;;
11935;SDS011;6027;48.576;9.180;2023-07-31T08:19:05;7.18;;;6.60;;
11935;SDS011;6027;48.576;9.180;2023-07-31T08:21:31;6.95;;;6.45;;
11935;SDS011;6027;48.576;9.180;2023-07-31T08:23:56;7.47;;;6.70;;
11935;SDS011;6027;48.576;9.180;2023-07-31T08:26:22;7.03;;;6.32;;
11935;SDS011;6027;48.576;9.180;2023-07-31T08:28:47;7.32;;;6.72;;
11935;SDS011;6027;48.576;9.180;2023-07-31T08:31:13;6.30;;;5.80;;
11935;SDS011;6027;48.576;9.180;2023-07-31T08:33:39;7.00;;;6.30;;
11935;SDS011;6027;48.576;9.180;2023-07-31T08:36:05;7.65;;;6.53;;
11935;SDS011;6027;48.576;9.180;2023-07-31T08:38:31;7.65;;;6.93;;
11935;SDS011;6027;48.576;9.180;2023-07-31T08:40:57;4.50;;;4.10;;
11935;SDS011;6027;48.576;9.180;2023-07-31T08:43:25;7.20;;;6.60;;
11935;SDS011;6027;48.576;9.180;2023-07-31T08:45:51;8.10;;;7.40;;
11935;SDS011;6027;48.576;9.180;2023-07-31T08:48:17;6.72;;;5.72;;
11935;SDS011;6027;48.576;9.180;2023-07-31T08:50:44;7.45;;;6.85;;
11935;SDS011;6027;48.576;9.180;2023-07-31T08:53:10;7.68;;;6.97;;
11935;SDS011;6027;48.576;9.180;2023-07-31T08:55:36;7.15;;;6.53;;
11935;SDS011;6027;48.576;9.180;2023-07-31T08:58:03;6.90;;;6.40;;
11935;SDS011;6027;48.576;9.180;2023-07-31T09:00:29;5.07;;;4.68;;
11935;SDS011;6027;48.576;9.180;2023-07-31T09:03:03;7.05;;;5.90;;
11935;SDS011;6027;48.576;9.180;2023-07-31T09:05:33;5.95;;;5.47;;
11935;SDS011;6027;48.576;9.180;2023-07-31T09:07:58;5.05;;;4.55;;
11935;SDS011;6027;48.576;9.180;2023-07-31T09:10:27;6.00;;;5.50;;
11935;SDS011;6027;48.576;9.180;2023-07-31T09:12:52;6.45;;;5.95;;
11935;SDS011;6027;48.576;9.180;2023-07-31T09:15:18;5.50;;;5.00;;
11935;SDS011;6027;48.576;9.180;2023-07-31T09:17:44;8.38;;;7.72;;
11935;SDS011;6027;48.576;9.180;2023-07-31T09:22:39;8.77;;;7.53;;
11935;SDS011;6027;48.576;9.180;2023-07-31T09:25:24;6.45;;;6.05;;
11935;SDS011;6027;48.576;9.180;2023-07-31T09:27:54;8.10;;;7.07;;
11935;SDS011;6027;48.576;9.180;2023-07-31T09:30:23;6.03;;;5.20;;
11935;SDS011;6027;48.576;9.180;2023-07-31T09:32:49;8.60;;;7.07;;
11935;SDS011;6027;48.576;9.180;2023-07-31T09:37:53;8.70;;;6.35;;
11935;SDS011;6027;48.576;9.180;2023-07-31T09:40:27;8.00;;;7.30;;
11935;SDS011;6027;48.576;9.180;2023-07-31T09:42:56;6.97;;;6.38;;
11935;SDS011;6027;48.576;9.180;2023-07-31T09:45:23;7.68;;;6.18;;
11935;SDS011;6027;48.576;9.180;2023-07-31T09:47:50;7.18;;;6.57;;
11935;SDS011;6027;48.576;9.180;2023-07-31T09:50:15;7.43;;;6.82;;
11935;SDS011;6027;48.576;9.180;2023-07-31T09:52:41;9.43;;;6.63;;
11935;SDS011;6027;48.576;9.180;2023-07-31T09:55:07;7.05;;;6.45;;
11935;SDS011;6027;48.576;9.180;2023-07-31T09:57:33;8.23;;;7.43;;
11935;SDS011;6027;48.576;9.180;2023-07-31T10:00:01;7.75;;;7.10;;
11935;SDS011;6027;48.576;9.180;2023-07-31T10:02:27;7.47;;;5.82;;
11935;SDS011;6027;48.576;9.180;2023-07-31T10:04:55;7.63;;;6.72;;
11935;SDS011;6027;48.576;9.180;2023-07-31T10:07:23;6.85;;;6.15;;
11935;SDS011;6027;48.576;9.180;2023-07-31T10:09:51;7.35;;;6.65;;
11935;SDS011;6027;48.576;9.180;2023-07-31T10:12:19;6.78;;;6.18;;
11935;SDS011;6027;48.576;9.180;2023-07-31T10:14:47;7.40;;;6.75;;
11935;SDS011;6027;48.576;9.180;2023-07-31T10:17:14;8.60;;;7.28;;
11935;SDS011;6027;48.576;9.180;2023-07-31T10:19:40;8.38;;;7.22;;
11935;SDS011;6027;48.576;9.180;2023-07-31T10:22:07;7.18;;;6.53;;
11935;SDS011;6027;48.576;9.180;2023-07-31T10:24:33;7.57;;;6.80;;
11935;SDS011;6027;48.576;9.180;2023-07-31T10:27:00;6.55;;;6.05;;
11935;SDS011;6027;48.576;9.180;2023-07-31T10:29:27;9.00;;;7.65;;
11935;SDS011;6027;48.576;9.180;2023-07-31T10:31:55;7.85;;;7.07;;
11935;SDS011;6027;48.576;9.180;2023-07-31T10:34:23;8.48;;;7.85;;
11935;SDS011;6027;48.576;9.180;2023-07-31T10:36:49;8.20;;;7.40;;
11935;SDS011;6027;48.576;9.180;2023-07-31T10:39:33;6.43;;;5.93;;
11935;SDS011;6027;48.576;9.180;2023-07-31T10:42:13;7.15;;;6.45;;
11935;SDS011;6027;48.576;9.180;2023-07-31T10:44:43;7.50;;;6.82;;
11935;SDS011;6027;48.576;9.180;2023-07-31T10:47:14;7.80;;;6.97;;
11935;SDS011;6027;48.576;9.180;2023-07-31T10:49:40;7.32;;;6.65;;
11935;SDS011;6027;48.576;9.180;2023-07-31T10:52:10;7.60;;;7.00;;
11935;SDS011;6027;48.576;9.180;2023-07-31T10:54:37;8.52;;;6.63;;
11935;SDS011;6027;48.576;9.180;2023-07-31T10:57:07;7.28;;;6.57;;
11935;SDS011;6027;48.576;9.180;2023-07-31T10:59:45;7.95;;;7.22;;
11935;SDS011;6027;48.576;9.180;2023-07-31T11:02:19;8.13;;;7.45;;
11935;SDS011;6027;48.576;9.180;2023-07-31T11:05:09;7.50;;;6.75;;
11935;SDS011;6027;48.576;9.180;2023-07-31T11:07:48;5.78;;;5.28;;
11935;SDS011;6027;48.576;9.180;2023-07-31T11:10:17;7.18;;;6.57;;
11935;SDS011;6027;48.576;9.180;2023-07-31T11:12:44;7.43;;;6.85;;
11935;SDS011;6027;48.576;9.180;2023-07-31T11:15:11;8.40;;;7.78;;
11935;SDS011;6027;48.576;9.180;2023-07-31T11:17:40;7.13;;;6.53;;
11935;SDS011;6027;48.576;9.180;2023-07-31T11:20:06;8.27;;;6.80;;
11935;SDS011;6027;48.576;9.180;2023-07-31T11:22:34;7.13;;;6.53;;
11935;SDS011;6027;48.576;9.180;2023-07-31T11:25:01;7.03;;;6.28;;
11935;SDS011;6027;48.576;9.180;2023-07-31T11:27:28;8.38;;;7.57;;
11935;SDS011;6027;48.576;9.180;2023-07-31T11:29:59;7.53;;;6.82;;
11935;SDS011;6027;48.576;9.180;2023-07-31T11:32:26;7.88;;;7.38;;
11935;SDS011;6027;48.576;9.180;2023-07-31T11:34:54;8.15;;;7.55;;
11935;SDS011;6027;48.576;9.180;2023-07-31T11:37:20;6.68;;;6.07;;
11935;SDS011;6027;48.576;9.180;2023-07-31T11:39:58;8.00;;;7.30;;
11935;SDS011;6027;48.576;9.180;2023-07-31T11:42:26;7.30;;;6.70;;
11935;SDS011;6027;48.576;9.180;2023-07-31T11:44:51;8.25;;;7.47;;
11935;SDS011;6027;48.576;9.180;2023-07-31T11:47:16;8.23;;;7.43;;
11935;SDS011;6027;48.576;9.180;2023-07-31T11:49:43;7.50;;;6.90;;
11935;SDS011;6027;48.576;9.180;2023-07-31T11:52:08;9.10;;;6.88;;
11935;SDS011;6027;48.576;9.180;2023-07-31T11:54:35;7.40;;;6.80;;
11935;SDS011;6027;48.576;9.180;2023-07-31T11:57:00;6.60;;;6.00;;
11935;SDS011;6027;48.576;9.180;2023-07-31T11:59:27;7.80;;;7.15;;
11935;SDS011;6027;48.576;9.180;2023-07-31T12:01:52;7.32;;;6.72;;
11935;SDS011;6027;48.576;9.180;2023-07-31T12:04:19;7.05;;;6.45;;
11935;SDS011;6027;48.576;9.180;2023-07-31T12:06:46;7.70;;;6.90;;
11935;SDS011;6027;48.576;9.180;2023-07-31T12:09:13;8.07;;;7.47;;
11935;SDS011;6027;48.576;9.180;2023-07-31T12:11:46;7.40;;;6.70;;
11935;SDS011;6027;48.576;9.180;2023-07-31T12:14:23;7.45;;;6.85;;
11935;SDS011;6027;48.576;9.180;2023-07-31T12:17:08;8.00;;;7.30;;
11935;SDS011;6027;48.576;9.180;2023-07-31T12:19:36;7.25;;;6.70;;
11935;SDS011;6027;48.576;9.180;2023-07-31T12:22:10;6.38;;;5.78;;
11935;SDS011;6027;48.576;9.180;2023-07-31T12:24:37;8.90;;;8.18;;
11935;SDS011;6027;48.576;9.180;2023-07-31T12:29:37;10.32;;;8.25;;
11935;SDS011;6027;48.576;9.180;2023-07-31T12:32:04;7.10;;;6.35;;
11935;SDS011;6027;48.576;9.180;2023-07-31T12:34:42;8.57;;;7.97;;
11935;SDS011;6027;48.576;9.180;2023-07-31T12:37:08;8.68;;;7.60;;
11935;SDS011;6027;48.576;9.180;2023-07-31T12:39:34;9.05;;;8.02;;
11935;SDS011;6027;48.576;9.180;2023-07-31T12:41:59;8.43;;;7.63;;
11935;SDS011;6027;48.576;9.180;2023-07-31T12:44:24;7.53;;;6.88;;
11935;SDS011;6027;48.576;9.180;2023-07-31T12:46:50;8.43;;;7.63;;
11935;SDS011;6027;48.576;9.180;2023-07-31T12:49:15;6.63;;;6.07;;
11935;SDS011;6027;48.576;9.180;2023-07-31T12:51:41;7.70;;;6.95;;
11935;SDS011;6027;48.576;9.180;2023-07-31T12:54:06;8.18;;;7.38;;
11935;SDS011;6027;48.576;9.180;2023-07-31T12:56:32;8.25;;;7.65;;
11935;SDS011;6027;48.576;9.180;2023-07-31T12:58:57;6.85;;;6.25;;
11935;SDS011;6027;48.576;9.180;2023-07-31T13:01:23;8.30;;;7.70;;
11935;SDS011;6027;48.576;9.180;2023-07-31T13:03:48;8.75;;;7.95;;
11935;SDS011;6027;48.576;9.180;2023-07-31T13:06:13;6.95;;;6.35;;
11935;SDS011;6027;48.576;9.180;2023-07-31T13:08:39;8.45;;;7.80;;
11935;SDS011;6027;48.576;9.180;2023-07-31T13:11:04;8.23;;;7.53;;
11935;SDS011;6027;48.576;9.180;2023-07-31T13:13:30;7.22;;;6.60;;
11935;SDS011;6027;48.576;9.180;2023-07-31T13:15:56;8.30;;;7.63;;
11935;SDS011;6027;48.576;9.180;2023-07-31T13:18:22;8.65;;;8.05;;
11935;SDS011;6027;48.576;9.180;2023-07-31T13:20:47;6.90;;;6.20;;
11935;SDS011;6027;48.576;9.180;2023-07-31T13:23:12;6.90;;;6.30;;
11935;SDS011;6027;48.576;9.180;2023-07-31T13:25:38;7.78;;;7.05;;
11935;SDS011;6027;48.576;9.180;2023-07-31T13:28:03;7.10;;;6.50;;
11935;SDS011;6027;48.576;9.180;2023-07-31T13:30:29;8.13;;;7.53;;
11935;SDS011;6027;48.576;9.180;2023-07-31T13:32:54;8.25;;;7.45;;
11935;SDS011;6027;48.576;9.180;2023-07-31T13:35:19;7.30;;;6.63;;
11935;SDS011;6027;48.576;9.180;2023-07-31T13:37:45;7.47;;;6.88;;
11935;SDS011;6027;48.576;9.180;2023-07-31T13:40:10;7.05;;;6.55;;
11935;SDS011;6027;48.576;9.180;2023-07-31T13:42:36;6.45;;;5.85;;
11935;SDS011;6027;48.576;9.180;2023-07-31T13:45:03;6.85;;;6.45;;
11935;SDS011;6027;48.576;9.180;2023-07-31T13:47:28;6.95;;;6.30;;
11935;SDS011;6027;48.576;9.180;2023-07-31T13:49:54;7.60;;;7.10;;
11935;SDS011;6027;48.576;9.180;2023-07-31T13:52:19;7.70;;;6.95;;
11935;SDS011;6027;48.576;9.180;2023-07-31T13:54:45;7.95;;;7.30;;
11935;SDS011;6027;48.576;9.180;2023-07-31T13:57:10;6.93;;;6.25;;
11935;SDS011;6027;48.576;9.180;2023-07-31T13:59:36;7.53;;;6.97;;
11935;SDS011;6027;48.576;9.180;2023-07-31T14:02:02;6.78;;;6.18;;
11935;SDS011;6027;48.576;9.180;2023-07-31T14:04:28;7.28;;;6.78;;
11935;SDS011;6027;48.576;9.180;2023-07-31T14:06:53;7.22;;;6.63;;
11935;SDS011;6027;48.576;9.180;2023-07-31T14:09:21;7.28;;;6.78;;
11935;SDS011;6027;48.576;9.180;2023-07-31T14:11:46;6.93;;;6.32;;
11935;SDS011;6027;48.576;9.180;2023-07-31T14:14:11;6.60;;;6.00;;
11935;SDS011;6027;48.576;9.180;2023-07-31T14:16:37;6.28;;;5.65;;
11935;SDS011;6027;48.576;9.180;2023-07-31T14:19:04;6.07;;;5.57;;
11935;SDS011;6027;48.576;9.180;2023-07-31T14:21:29;7.18;;;6.10;;
11935;SDS011;6027;48.576;9.180;2023-07-31T14:23:54;7.22;;;6.63;;
11935;SDS011;6027;48.576;9.180;2023-07-31T14:26:20;6.05;;;5.63;;
11935;SDS011;6027;48.576;9.180;2023-07-31T14:28:45;6.82;;;6.43;;
11935;SDS011;6027;48.576;9.180;2023-07-31T14:31:11;7.10;;;6.50;;
11935;SDS011;6027;48.576;9.180;2023-07-31T14:33:36;8.88;;;6.80;;
11935;SDS011;6027;48.576;9.180;2023-07-31T14:36:02;6.45;;;6.03;;
11935;SDS011;6027;48.576;9.180;2023-07-31T14:38:28;8.55;;;6.20;;
11935;SDS011;6027;48.576;9.180;2023-07-31T14:40:53;7.10;;;6.35;;
11935;SDS011;6027;48.576;9.180;2023-07-31T14:43:18;6.45;;;6.05;;
11935;SDS011;6027;48.576;9.180;2023-07-31T14:45:44;7.88;;;7.18;;
11935;SDS011;6027;48.576;9.180;2023-07-31T14:48:11;8.80;;;7.10;;
11935;SDS011;6027;48.576;9.180;2023-07-31T14:50:36;7.38;;;6.78;;
11935;SDS011;6027;48.576;9.180;2023-07-31T14:53:02;7.78;;;7.15;;
11935;SDS011;6027;48.576;9.180;2023-07-31T14:55:27;8.05;;;7.25;;
11935;SDS011;6027;48.576;9.180;2023-07-31T14:57:53;7.63;;;7.00;;
11935;SDS011;6027;48.576;9.180;2023-07-31T15:00:18;7.63;;;7.03;;
11935;SDS011;6027;48.576;9.180;2023-07-31T15:02:44;6.63;;;6.03;;
11935;SDS011;6027;48.576;9.180;2023-07-31T15:05:10;6.50;;;6.10;;
11935;SDS011;6027;48.576;9.180;2023-07-31T15:07:35;7.03;;;6.38;;
11935;SDS011;6027;48.576;9.180;2023-07-31T15:10:01;9.10;;;8.38;;